sensor_id;sensor_type;location;lat;lon;timestamp;P1;durP1;ratioP1;P2;durP2;ratioP2
76053;SDS011;64752;48.870;9.082;2023-07-28T00:01:50;5.67;;;3.37;;
76053;SDS011;64752;48.870;9.082;2023-07-28T00:04:15;5.27;;;3.13;;
76053;SDS011;64752;48.870;9.082;2023-07-28T00:06:40;4.87;;;3.03;;
76053;SDS011;64752;48.870;9.082;2023-07-28T00:09:06;4.97;;;3.27;;
76053;SDS011;64752;48.870;9.082;2023-07-28T00:11:31;5.20;;;2.92;;
76053;SDS011;64752;48.870;9.082;2023-07-28T00:13:57;4.30;;;2.97;;
76053;SDS011;64752;48.870;9.082;2023-07-28T00:16:22;4.30;;;3.10;;
76053;SDS011;64752;48.870;9.082;2023-07-28T00:18:47;5.57;;;3.20;;
76053;SDS011;64752;48.870;9.082;2023-07-28T00:21:13;5.03;;;3.07;;
76053;SDS011;64752;48.870;9.082;2023-07-28T00:23:38;4.70;;;2.57;;
76053;SDS011;64752;48.870;9.082;2023-07-28T00:26:03;5.93;;;2.77;;
76053;SDS011;64752;48.870;9.082;2023-07-28T00:28:29;6.60;;;3.47;;
76053;SDS011;64752;48.870;9.082;2023-07-28T00:30:54;5.37;;;3.03;;
76053;SDS011;64752;48.870;9.082;2023-07-28T00:33:19;4.23;;;3.17;;
76053;SDS011;64752;48.870;9.082;2023-07-28T00:35:45;5.03;;;2.60;;
76053;SDS011;64752;48.870;9.082;2023-07-28T00:38:10;5.83;;;3.33;;
76053;SDS011;64752;48.870;9.082;2023-07-28T00:40:36;3.87;;;2.97;;
76053;SDS011;64752;48.870;9.082;2023-07-28T00:43:01;5.57;;;3.10;;
76053;SDS011;64752;48.870;9.082;2023-07-28T00:45:27;6.27;;;3.17;;
76053;SDS011;64752;48.870;9.082;2023-07-28T00:47:54;5.00;;;2.92;;
76053;SDS011;64752;48.870;9.082;2023-07-28T00:50:22;5.60;;;3.00;;
76053;SDS011;64752;48.870;9.082;2023-07-28T00:52:48;6.00;;;3.23;;
76053;SDS011;64752;48.870;9.082;2023-07-28T00:55:14;7.38;;;3.65;;
76053;SDS011;64752;48.870;9.082;2023-07-28T00:57:40;6.30;;;2.95;;
76053;SDS011;64752;48.870;9.082;2023-07-28T01:00:05;8.50;;;3.80;;
76053;SDS011;64752;48.870;9.082;2023-07-28T01:02:31;7.13;;;3.60;;
76053;SDS011;64752;48.870;9.082;2023-07-28T01:04:57;6.97;;;3.40;;
76053;SDS011;64752;48.870;9.082;2023-07-28T01:07:27;4.63;;;3.15;;
76053;SDS011;64752;48.870;9.082;2023-07-28T01:10:01;4.30;;;3.13;;
76053;SDS011;64752;48.870;9.082;2023-07-28T01:12:43;6.20;;;3.60;;
76053;SDS011;64752;48.870;9.082;2023-07-28T01:15:08;6.60;;;3.45;;
76053;SDS011;64752;48.870;9.082;2023-07-28T01:17:34;6.20;;;4.03;;
76053;SDS011;64752;48.870;9.082;2023-07-28T01:19:59;6.97;;;3.85;;
76053;SDS011;64752;48.870;9.082;2023-07-28T01:22:39;6.97;;;3.70;;
76053;SDS011;64752;48.870;9.082;2023-07-28T01:25:32;5.30;;;4.30;;
76053;SDS011;64752;48.870;9.082;2023-07-28T01:28:10;5.90;;;4.20;;
76053;SDS011;64752;48.870;9.082;2023-07-28T01:30:37;6.03;;;4.18;;
76053;SDS011;64752;48.870;9.082;2023-07-28T01:33:05;6.65;;;4.22;;
76053;SDS011;64752;48.870;9.082;2023-07-28T01:35:36;7.07;;;4.40;;
76053;SDS011;64752;48.870;9.082;2023-07-28T01:38:03;7.03;;;4.22;;
76053;SDS011;64752;48.870;9.082;2023-07-28T01:40:28;5.53;;;4.13;;
76053;SDS011;64752;48.870;9.082;2023-07-28T01:42:53;6.33;;;4.50;;
76053;SDS011;64752;48.870;9.082;2023-07-28T01:45:19;6.53;;;4.20;;
76053;SDS011;64752;48.870;9.082;2023-07-28T01:47:44;5.60;;;3.87;;
76053;SDS011;64752;48.870;9.082;2023-07-28T01:50:09;4.82;;;3.85;;
76053;SDS011;64752;48.870;9.082;2023-07-28T01:52:35;9.98;;;3.67;;
76053;SDS011;64752;48.870;9.082;2023-07-28T01:55:00;4.07;;;3.25;;
76053;SDS011;64752;48.870;9.082;2023-07-28T01:57:26;9.13;;;3.58;;
76053;SDS011;64752;48.870;9.082;2023-07-28T01:59:53;5.22;;;3.22;;
76053;SDS011;64752;48.870;9.082;2023-07-28T02:02:19;4.35;;;3.38;;
76053;SDS011;64752;48.870;9.082;2023-07-28T02:04:44;4.53;;;3.20;;
76053;SDS011;64752;48.870;9.082;2023-07-28T02:07:09;4.25;;;2.88;;
76053;SDS011;64752;48.870;9.082;2023-07-28T02:09:35;5.53;;;3.35;;
76053;SDS011;64752;48.870;9.082;2023-07-28T02:12:00;3.80;;;2.90;;
76053;SDS011;64752;48.870;9.082;2023-07-28T02:14:26;6.53;;;3.10;;
76053;SDS011;64752;48.870;9.082;2023-07-28T02:16:51;4.40;;;3.17;;
76053;SDS011;64752;48.870;9.082;2023-07-28T02:19:16;4.13;;;3.00;;
76053;SDS011;64752;48.870;9.082;2023-07-28T02:21:42;5.20;;;2.87;;
76053;SDS011;64752;48.870;9.082;2023-07-28T02:24:07;5.43;;;3.07;;
76053;SDS011;64752;48.870;9.082;2023-07-28T02:26:32;4.88;;;3.17;;
76053;SDS011;64752;48.870;9.082;2023-07-28T02:28:58;5.40;;;2.83;;
76053;SDS011;64752;48.870;9.082;2023-07-28T02:31:23;3.97;;;3.00;;
76053;SDS011;64752;48.870;9.082;2023-07-28T02:33:49;4.07;;;2.50;;
76053;SDS011;64752;48.870;9.082;2023-07-28T02:36:14;3.53;;;2.40;;
76053;SDS011;64752;48.870;9.082;2023-07-28T02:38:39;5.63;;;2.87;;
76053;SDS011;64752;48.870;9.082;2023-07-28T02:41:04;5.70;;;2.63;;
76053;SDS011;64752;48.870;9.082;2023-07-28T02:43:30;5.00;;;2.97;;
76053;SDS011;64752;48.870;9.082;2023-07-28T02:45:56;3.47;;;2.70;;
76053;SDS011;64752;48.870;9.082;2023-07-28T02:50:49;4.22;;;2.95;;
76053;SDS011;64752;48.870;9.082;2023-07-28T02:53:15;4.55;;;2.60;;
76053;SDS011;64752;48.870;9.082;2023-07-28T02:55:44;4.28;;;3.00;;
76053;SDS011;64752;48.870;9.082;2023-07-28T02:58:11;4.63;;;3.30;;
76053;SDS011;64752;48.870;9.082;2023-07-28T03:00:37;8.73;;;2.67;;
76053;SDS011;64752;48.870;9.082;2023-07-28T03:03:03;4.80;;;2.80;;
76053;SDS011;64752;48.870;9.082;2023-07-28T03:05:30;4.17;;;2.40;;
76053;SDS011;64752;48.870;9.082;2023-07-28T03:10:22;4.07;;;2.88;;
76053;SDS011;64752;48.870;9.082;2023-07-28T03:12:47;4.07;;;2.80;;
76053;SDS011;64752;48.870;9.082;2023-07-28T03:15:12;4.20;;;2.67;;
76053;SDS011;64752;48.870;9.082;2023-07-28T03:17:38;4.27;;;2.73;;
76053;SDS011;64752;48.870;9.082;2023-07-28T03:20:03;4.50;;;3.07;;
76053;SDS011;64752;48.870;9.082;2023-07-28T03:22:29;3.40;;;2.88;;
76053;SDS011;64752;48.870;9.082;2023-07-28T03:24:55;5.37;;;3.30;;
76053;SDS011;64752;48.870;9.082;2023-07-28T03:27:21;3.60;;;2.63;;
76053;SDS011;64752;48.870;9.082;2023-07-28T03:29:46;4.83;;;2.67;;
76053;SDS011;64752;48.870;9.082;2023-07-28T03:32:17;3.17;;;2.63;;
76053;SDS011;64752;48.870;9.082;2023-07-28T03:34:42;4.57;;;3.00;;
76053;SDS011;64752;48.870;9.082;2023-07-28T03:37:07;6.80;;;3.00;;
76053;SDS011;64752;48.870;9.082;2023-07-28T03:39:34;7.23;;;3.43;;
76053;SDS011;64752;48.870;9.082;2023-07-28T03:42:00;5.22;;;3.47;;
76053;SDS011;64752;48.870;9.082;2023-07-28T03:44:25;4.60;;;2.83;;
76053;SDS011;64752;48.870;9.082;2023-07-28T03:46:51;3.40;;;2.80;;
76053;SDS011;64752;48.870;9.082;2023-07-28T03:49:16;6.07;;;3.00;;
76053;SDS011;64752;48.870;9.082;2023-07-28T03:51:42;6.00;;;3.13;;
76053;SDS011;64752;48.870;9.082;2023-07-28T03:54:07;4.37;;;3.50;;
76053;SDS011;64752;48.870;9.082;2023-07-28T03:56:33;5.30;;;3.42;;
76053;SDS011;64752;48.870;9.082;2023-07-28T03:58:58;7.37;;;3.40;;
76053;SDS011;64752;48.870;9.082;2023-07-28T04:01:23;5.85;;;3.65;;
76053;SDS011;64752;48.870;9.082;2023-07-28T04:03:49;4.87;;;3.57;;
76053;SDS011;64752;48.870;9.082;2023-07-28T04:06:14;5.07;;;3.33;;
76053;SDS011;64752;48.870;9.082;2023-07-28T04:08:40;8.77;;;5.07;;
76053;SDS011;64752;48.870;9.082;2023-07-28T04:11:06;4.40;;;3.20;;
76053;SDS011;64752;48.870;9.082;2023-07-28T04:13:31;6.23;;;4.00;;
76053;SDS011;64752;48.870;9.082;2023-07-28T04:15:57;5.35;;;3.20;;
76053;SDS011;64752;48.870;9.082;2023-07-28T04:18:23;6.63;;;3.73;;
76053;SDS011;64752;48.870;9.082;2023-07-28T04:20:48;5.43;;;3.27;;
76053;SDS011;64752;48.870;9.082;2023-07-28T04:23:14;7.63;;;3.10;;
76053;SDS011;64752;48.870;9.082;2023-07-28T04:25:39;4.47;;;2.88;;
76053;SDS011;64752;48.870;9.082;2023-07-28T04:28:04;3.87;;;2.70;;
76053;SDS011;64752;48.870;9.082;2023-07-28T04:30:30;10.40;;;3.17;;
76053;SDS011;64752;48.870;9.082;2023-07-28T04:32:55;5.30;;;2.90;;
76053;SDS011;64752;48.870;9.082;2023-07-28T04:35:20;7.67;;;3.53;;
76053;SDS011;64752;48.870;9.082;2023-07-28T04:37:46;5.90;;;3.80;;
76053;SDS011;64752;48.870;9.082;2023-07-28T04:40:11;6.10;;;3.70;;
76053;SDS011;64752;48.870;9.082;2023-07-28T04:42:37;6.20;;;3.80;;
76053;SDS011;64752;48.870;9.082;2023-07-28T04:45:02;7.97;;;3.93;;
76053;SDS011;64752;48.870;9.082;2023-07-28T04:47:28;7.53;;;4.20;;
76053;SDS011;64752;48.870;9.082;2023-07-28T04:49:54;4.57;;;3.83;;
76053;SDS011;64752;48.870;9.082;2023-07-28T04:52:23;5.40;;;4.15;;
76053;SDS011;64752;48.870;9.082;2023-07-28T04:54:48;10.05;;;5.55;;
76053;SDS011;64752;48.870;9.082;2023-07-28T04:57:13;6.17;;;4.13;;
76053;SDS011;64752;48.870;9.082;2023-07-28T04:59:39;7.53;;;5.47;;
76053;SDS011;64752;48.870;9.082;2023-07-28T05:02:04;8.85;;;5.05;;
76053;SDS011;64752;48.870;9.082;2023-07-28T05:04:30;7.53;;;5.53;;
76053;SDS011;64752;48.870;9.082;2023-07-28T05:06:55;10.10;;;5.00;;
76053;SDS011;64752;48.870;9.082;2023-07-28T05:09:20;6.53;;;4.63;;
76053;SDS011;64752;48.870;9.082;2023-07-28T05:11:46;10.20;;;4.60;;
76053;SDS011;64752;48.870;9.082;2023-07-28T05:14:11;9.97;;;4.27;;
76053;SDS011;64752;48.870;9.082;2023-07-28T05:16:37;8.63;;;4.90;;
76053;SDS011;64752;48.870;9.082;2023-07-28T05:19:03;6.90;;;4.77;;
76053;SDS011;64752;48.870;9.082;2023-07-28T05:21:32;5.55;;;4.60;;
76053;SDS011;64752;48.870;9.082;2023-07-28T05:23:57;9.20;;;4.85;;
76053;SDS011;64752;48.870;9.082;2023-07-28T05:26:23;8.60;;;4.80;;
76053;SDS011;64752;48.870;9.082;2023-07-28T05:28:49;6.70;;;4.47;;
76053;SDS011;64752;48.870;9.082;2023-07-28T05:31:15;7.20;;;4.15;;
76053;SDS011;64752;48.870;9.082;2023-07-28T05:33:42;6.47;;;4.20;;
76053;SDS011;64752;48.870;9.082;2023-07-28T05:36:07;10.40;;;4.63;;
76053;SDS011;64752;48.870;9.082;2023-07-28T05:38:33;5.50;;;4.60;;
76053;SDS011;64752;48.870;9.082;2023-07-28T05:41:02;7.43;;;4.80;;
76053;SDS011;64752;48.870;9.082;2023-07-28T05:43:30;7.70;;;4.68;;
76053;SDS011;64752;48.870;9.082;2023-07-28T05:45:59;7.67;;;4.97;;
76053;SDS011;64752;48.870;9.082;2023-07-28T05:48:25;9.65;;;4.63;;
76053;SDS011;64752;48.870;9.082;2023-07-28T05:50:51;9.13;;;4.60;;
76053;SDS011;64752;48.870;9.082;2023-07-28T05:53:18;6.45;;;4.50;;
76053;SDS011;64752;48.870;9.082;2023-07-28T05:55:47;7.95;;;4.60;;
76053;SDS011;64752;48.870;9.082;2023-07-28T05:58:13;6.03;;;4.55;;
76053;SDS011;64752;48.870;9.082;2023-07-28T06:00:39;6.07;;;4.30;;
76053;SDS011;64752;48.870;9.082;2023-07-28T06:03:06;7.95;;;4.60;;
76053;SDS011;64752;48.870;9.082;2023-07-28T06:05:32;6.78;;;4.53;;
76053;SDS011;64752;48.870;9.082;2023-07-28T06:07:57;5.07;;;3.77;;
76053;SDS011;64752;48.870;9.082;2023-07-28T06:10:22;6.13;;;4.27;;
76053;SDS011;64752;48.870;9.082;2023-07-28T06:12:48;6.13;;;4.53;;
76053;SDS011;64752;48.870;9.082;2023-07-28T06:15:13;5.93;;;4.57;;
76053;SDS011;64752;48.870;9.082;2023-07-28T06:17:38;7.60;;;4.17;;
76053;SDS011;64752;48.870;9.082;2023-07-28T06:20:04;6.07;;;3.90;;
